createdAt,value
2019-03-12T00:00:32.340Z,1.70
2019-03-12T00:03:00.783Z,1.70
2019-03-12T00:05:29.266Z,1.70
2019-03-12T00:07:57.705Z,1.70
2019-03-12T00:10:26.132Z,1.60
2019-03-12T00:12:54.643Z,1.60
2019-03-12T00:15:23.061Z,1.60
2019-03-12T00:17:51.503Z,1.70
2019-03-12T00:20:19.918Z,1.60
2019-03-12T00:22:48.351Z,1.70
2019-03-12T00:25:16.766Z,1.60
2019-03-12T00:27:45.194Z,1.60
2019-03-12T00:30:13.760Z,1.70
2019-03-12T00:32:42.190Z,1.70
2019-03-12T00:35:10.850Z,1.70
2019-03-12T00:37:39.264Z,1.70
2019-03-12T00:40:09.244Z,1.70
2019-03-12T00:42:37.691Z,1.60
2019-03-12T00:45:12.460Z,1.70
2019-03-12T00:47:40.961Z,1.70
2019-03-12T00:50:10.714Z,1.70
2019-03-12T00:52:39.178Z,1.70
2019-03-12T00:55:08.748Z,1.70
2019-03-12T00:57:37.155Z,1.70
2019-03-12T01:00:14.527Z,1.70
2019-03-12T01:02:43.008Z,1.70
2019-03-12T01:05:11.507Z,1.70
2019-03-12T01:07:40.035Z,1.70
2019-03-12T01:10:11.466Z,1.70
2019-03-12T01:12:39.895Z,1.70
2019-03-12T01:15:10.873Z,1.60
2019-03-12T01:17:39.351Z,1.60
2019-03-12T01:20:10.624Z,1.60
2019-03-12T01:22:39.038Z,1.50
2019-03-12T01:25:09.406Z,1.40
2019-03-12T01:27:37.843Z,1.50
2019-03-12T01:30:09.474Z,1.40
2019-03-12T01:32:37.903Z,1.40
2019-03-12T01:35:07.567Z,1.40
2019-03-12T01:37:36.002Z,1.30
2019-03-12T01:40:06.585Z,1.30
2019-03-12T01:42:35.018Z,1.30
2019-03-12T01:45:03.543Z,1.30
2019-03-12T01:47:31.958Z,1.30
2019-03-12T01:50:00.389Z,1.40
2019-03-12T01:52:28.808Z,1.40
2019-03-12T01:54:58.776Z,1.40
2019-03-12T01:57:27.219Z,1.40
2019-03-12T01:59:55.637Z,1.50
2019-03-12T02:02:24.138Z,1.40
2019-03-12T02:04:52.562Z,1.40
2019-03-12T02:07:20.995Z,1.40
2019-03-12T02:09:49.402Z,1.30
2019-03-12T02:12:17.835Z,1.30
2019-03-12T02:14:46.287Z,1.20
2019-03-12T02:17:14.708Z,1.20
2019-03-12T02:19:43.122Z,1.20
2019-03-12T02:22:11.702Z,1.10
2019-03-12T02:24:52.118Z,1.10
2019-03-12T02:27:10.278Z,1.00
2019-03-12T02:29:38.691Z,1.00
2019-03-12T02:32:07.468Z,1.00
2019-03-12T02:34:35.885Z,1.00
2019-03-12T02:37:05.362Z,0.90
2019-03-12T02:39:33.880Z,0.90
2019-03-12T02:42:02.267Z,0.90
2019-03-12T02:44:30.722Z,0.80
2019-03-12T02:46:59.119Z,0.90
2019-03-12T02:49:27.560Z,0.90
2019-03-12T02:51:55.970Z,0.90
2019-03-12T02:54:24.417Z,0.90
2019-03-12T02:56:52.900Z,0.80
2019-03-12T02:59:21.335Z,0.80
2019-03-12T03:01:49.805Z,0.70
2019-03-12T03:04:18.351Z,0.70
2019-03-12T03:06:48.486Z,0.70
2019-03-12T03:09:17.071Z,0.70
2019-03-12T03:11:45.486Z,0.80
2019-03-12T03:14:36.607Z,0.70
2019-03-12T03:17:05.319Z,0.80
2019-03-12T03:19:33.753Z,0.70
2019-03-12T03:22:02.176Z,0.70
2019-03-12T03:24:30.614Z,0.70
2019-03-12T03:26:59.032Z,0.70
2019-03-12T03:29:27.481Z,0.70
2019-03-12T03:31:55.892Z,0.70
2019-03-12T03:34:27.622Z,0.70
2019-03-12T03:36:54.471Z,0.70
2019-03-12T03:39:22.911Z,0.70
2019-03-12T03:41:51.328Z,0.70
2019-03-12T03:44:19.843Z,0.70
2019-03-12T03:46:48.335Z,0.60
2019-03-12T03:49:16.750Z,0.70
2019-03-12T03:51:45.202Z,0.70
2019-03-12T03:54:13.638Z,0.60
2019-03-12T03:56:42.132Z,0.50
2019-03-12T03:59:10.596Z,0.50
2019-03-12T04:01:39.256Z,0.60
2019-03-12T04:04:07.678Z,0.60
2019-03-12T04:06:36.179Z,0.60
2019-03-12T04:09:05.526Z,0.50
2019-03-12T04:11:33.965Z,0.50
2019-03-12T04:14:02.384Z,0.50
2019-03-12T04:16:30.816Z,0.50
2019-03-12T04:18:59.244Z,0.60
2019-03-12T04:21:27.755Z,0.60
2019-03-12T04:23:56.168Z,0.60
2019-03-12T04:26:24.607Z,0.60
2019-03-12T04:28:53.025Z,0.70
2019-03-12T04:31:21.471Z,0.60
2019-03-12T04:33:58.853Z,0.60
2019-03-12T04:36:27.289Z,0.60
2019-03-12T04:38:55.695Z,0.50
2019-03-12T04:41:24.131Z,0.50
2019-03-12T04:43:52.546Z,0.60
2019-03-12T04:46:20.987Z,0.60
2019-03-12T04:48:49.406Z,0.60
2019-03-12T04:51:17.810Z,0.70
2019-03-12T04:53:46.245Z,0.60
2019-03-12T04:56:14.687Z,0.60
2019-03-12T04:58:43.119Z,0.70
2019-03-12T05:01:11.542Z,0.70
2019-03-12T05:03:39.987Z,0.60
2019-03-12T05:06:08.398Z,0.60
2019-03-12T05:08:36.846Z,0.60
2019-03-12T05:11:05.332Z,0.60
2019-03-12T05:13:33.802Z,0.60
2019-03-12T05:16:02.215Z,0.60
2019-03-12T05:18:30.655Z,0.60
2019-03-12T05:20:59.069Z,0.60
2019-03-12T05:23:27.516Z,0.60
2019-03-12T05:25:55.938Z,0.50
2019-03-12T05:28:24.375Z,0.50
2019-03-12T05:30:52.817Z,0.40
2019-03-12T05:33:21.260Z,0.50
2019-03-12T05:35:49.685Z,0.40
2019-03-12T05:38:18.144Z,0.40
2019-03-12T05:40:46.631Z,0.40
2019-03-12T05:43:15.077Z,0.40
2019-03-12T05:45:43.516Z,0.30
2019-03-12T05:48:11.934Z,0.30
2019-03-12T05:50:40.378Z,0.30
2019-03-12T05:53:15.579Z,0.30
2019-03-12T05:55:45.150Z,0.20
2019-03-12T05:58:13.627Z,0.30
2019-03-12T06:00:42.069Z,0.30
2019-03-12T06:03:10.496Z,0.20
2019-03-12T06:05:38.933Z,0.30
2019-03-12T06:08:07.350Z,0.30
2019-03-12T06:10:35.867Z,0.30
2019-03-12T06:13:04.269Z,0.40
2019-03-12T06:15:32.783Z,0.30
2019-03-12T06:18:01.191Z,0.30
2019-03-12T06:20:29.637Z,0.30
2019-03-12T06:22:58.050Z,0.20
2019-03-12T06:25:26.505Z,0.20
2019-03-12T06:27:54.911Z,0.20
2019-03-12T06:30:25.905Z,0.10
2019-03-12T06:32:57.833Z,0.10
2019-03-12T06:35:44.101Z,0.10
2019-03-12T06:38:28.564Z,0.00
2019-03-12T06:40:58.639Z,0.00
2019-03-12T06:43:43.634Z,-0.10
2019-03-12T06:46:16.723Z,-0.10
2019-03-12T06:48:49.530Z,-0.10
2019-03-12T06:51:31.519Z,-0.20
2019-03-12T06:54:04.618Z,-0.20
2019-03-12T06:56:40.475Z,-0.20
2019-03-12T06:59:25.612Z,-0.30
2019-03-12T07:01:55.764Z,-0.30
2019-03-12T07:04:37.881Z,-0.30
2019-03-12T07:07:16.862Z,-0.10
2019-03-12T07:09:57.317Z,0.10
2019-03-12T07:12:43.502Z,0.30
2019-03-12T07:15:31.551Z,0.40
2019-03-12T07:18:10.365Z,0.60
2019-03-12T07:20:40.457Z,0.70
2019-03-12T07:23:16.335Z,0.70
2019-03-12T07:25:46.398Z,0.80
2019-03-12T07:28:19.196Z,1.00
2019-03-12T07:30:49.249Z,1.20
2019-03-12T07:33:25.331Z,1.40
2019-03-12T07:36:11.436Z,1.60
2019-03-12T07:38:56.389Z,1.80
2019-03-12T07:41:35.308Z,1.80
2019-03-12T07:44:05.401Z,1.80
2019-03-12T07:46:35.536Z,2.00
2019-03-12T07:49:08.319Z,2.00
2019-03-12T07:51:44.332Z,2.10
2019-03-12T07:54:30.752Z,2.20
2019-03-12T07:57:16.810Z,2.30
2019-03-12T07:59:46.887Z,2.40
2019-03-12T08:02:25.548Z,2.40
2019-03-12T08:05:13.583Z,2.50
2019-03-12T08:07:46.336Z,2.40
2019-03-12T08:10:16.409Z,2.40
2019-03-12T08:12:46.474Z,2.50
2019-03-12T08:15:23.064Z,2.50
2019-03-12T08:18:03.255Z,2.70
2019-03-12T08:20:38.794Z,2.80
2019-03-12T08:23:11.626Z,3.10
2019-03-12T08:25:59.506Z,3.10
2019-03-12T08:28:41.615Z,3.30
2019-03-12T08:31:11.767Z,3.40
2019-03-12T08:33:50.636Z,3.70
2019-03-12T08:36:25.532Z,3.90
2019-03-12T08:38:55.585Z,4.10
2019-03-12T08:41:41.942Z,4.30
2019-03-12T08:44:12.067Z,4.30
2019-03-12T08:46:44.928Z,4.50
2019-03-12T08:49:30.157Z,4.70
2019-03-12T08:52:14.966Z,5.00
2019-03-12T08:54:54.739Z,5.50
2019-03-12T08:57:30.838Z,5.60
2019-03-12T09:00:03.427Z,5.70
2019-03-12T09:02:49.866Z,5.60
2019-03-12T09:05:22.917Z,5.80
2019-03-12T09:07:52.983Z,5.60
2019-03-12T09:10:26.158Z,6.00
2019-03-12T09:12:58.716Z,6.30
2019-03-12T09:15:37.559Z,6.70
2019-03-12T09:18:25.505Z,7.30
2019-03-12T09:21:01.292Z,6.90
2019-03-12T09:23:40.070Z,6.20
2019-03-12T09:26:26.425Z,5.70
2019-03-12T09:28:59.462Z,5.40
2019-03-12T09:31:41.704Z,5.50
2019-03-12T09:34:20.779Z,5.80
2019-03-12T09:37:07.067Z,5.60
2019-03-12T09:39:53.428Z,5.20
2019-03-12T09:42:35.736Z,5.20
2019-03-12T09:45:23.415Z,5.90
2019-03-12T09:48:05.400Z,6.00
2019-03-12T09:50:35.499Z,6.40
2019-03-12T09:53:11.161Z,6.90
2019-03-12T09:55:41.290Z,7.20
2019-03-12T09:58:17.387Z,7.20
2019-03-12T10:00:47.442Z,7.30
2019-03-12T10:03:28.965Z,7.60
2019-03-12T10:05:59.015Z,7.60
2019-03-12T10:08:34.899Z,7.70
2019-03-12T10:11:08.074Z,7.80
2019-03-12T10:13:43.674Z,8.20
2019-03-12T10:16:30.154Z,8.70
2019-03-12T10:19:06.000Z,8.00
2019-03-12T10:21:41.799Z,7.30
2019-03-12T10:24:14.823Z,6.60
2019-03-12T10:26:47.855Z,6.70
2019-03-12T10:29:17.931Z,7.10
2019-03-12T10:32:02.853Z,7.20
2019-03-12T10:34:48.978Z,7.50
2019-03-12T10:37:30.857Z,7.70
2019-03-12T10:40:04.987Z,7.70
2019-03-12T10:42:43.336Z,7.60
2019-03-12T10:45:13.947Z,7.80
2019-03-12T10:47:50.054Z,7.90
2019-03-12T10:50:18.558Z,7.90
2019-03-12T10:52:46.982Z,8.50
2019-03-12T10:55:15.576Z,8.90
2019-03-12T10:57:43.989Z,8.50
2019-03-12T11:00:19.212Z,8.70
2019-03-12T11:02:47.698Z,8.90
2019-03-12T11:05:17.475Z,8.80
2019-03-12T11:07:45.889Z,8.80
2019-03-12T11:10:15.998Z,8.80
2019-03-12T11:12:44.534Z,9.20
2019-03-12T11:15:15.146Z,8.80
2019-03-12T11:17:49.548Z,8.40
2019-03-12T11:20:21.871Z,8.60
2019-03-12T11:22:50.389Z,9.40
2019-03-12T11:25:27.458Z,9.30
2019-03-12T11:27:49.095Z,9.00
2019-03-12T11:30:20.871Z,9.00
2019-03-12T11:32:49.311Z,8.70
2019-03-12T11:35:17.748Z,8.90
2019-03-12T11:37:46.197Z,8.80
2019-03-12T11:40:22.656Z,9.20
2019-03-12T11:42:51.630Z,8.60
2019-03-12T11:45:34.810Z,8.40
2019-03-12T11:47:52.027Z,8.90
2019-03-12T11:50:22.087Z,9.20
2019-03-12T11:52:56.258Z,8.80
2019-03-12T11:55:20.858Z,8.80
2019-03-12T11:57:49.299Z,9.10
2019-03-12T12:00:24.179Z,9.40
2019-03-12T12:02:59.866Z,9.00
2019-03-12T12:05:23.038Z,9.00
2019-03-12T12:07:51.492Z,8.90
2019-03-12T12:10:20.077Z,9.10
2019-03-12T12:12:48.642Z,9.30
2019-03-12T12:15:17.232Z,9.50
2019-03-12T12:17:45.710Z,9.60
2019-03-12T12:20:28.381Z,9.60
2019-03-12T12:22:45.354Z,9.60
2019-03-12T12:25:16.856Z,9.50
2019-03-12T12:27:45.369Z,9.80
2019-03-12T12:30:19.780Z,9.70
2019-03-12T12:32:48.239Z,9.60
2019-03-12T12:35:16.639Z,9.60
2019-03-12T12:37:45.126Z,9.60
2019-03-12T12:40:17.726Z,9.80
2019-03-12T12:42:46.316Z,10.00
2019-03-12T12:45:17.262Z,10.30
2019-03-12T12:47:45.677Z,9.60
2019-03-12T12:50:14.468Z,10.20
2019-03-12T12:52:42.978Z,10.40
2019-03-12T12:55:13.852Z,10.40
2019-03-12T12:57:42.357Z,10.10
2019-03-12T13:00:22.063Z,10.40
2019-03-12T13:02:50.566Z,10.20
2019-03-12T13:05:19.067Z,9.90
2019-03-12T13:07:47.730Z,10.10
2019-03-12T13:10:21.483Z,9.90
2019-03-12T13:12:49.959Z,9.50
2019-03-12T13:15:18.630Z,9.20
2019-03-12T13:17:47.027Z,9.40
2019-03-12T13:20:15.607Z,9.50
2019-03-12T13:22:44.089Z,9.60
2019-03-12T13:25:16.502Z,9.30
2019-03-12T13:27:46.531Z,9.40
2019-03-12T13:30:22.007Z,9.50
2019-03-12T13:32:50.493Z,9.30
2019-03-12T13:35:19.480Z,9.30
2019-03-12T13:37:48.727Z,9.00
2019-03-12T13:40:26.601Z,9.00
2019-03-12T13:42:55.283Z,9.00
2019-03-12T13:45:29.048Z,9.00
2019-03-12T13:47:57.605Z,9.40
2019-03-12T13:50:26.384Z,9.50
2019-03-12T13:52:54.849Z,9.20
2019-03-12T13:55:23.488Z,8.90
2019-03-12T13:57:52.021Z,8.70
2019-03-12T14:00:22.449Z,8.60
2019-03-12T14:02:51.171Z,8.70
2019-03-12T14:05:19.861Z,8.50
2019-03-12T14:07:48.368Z,8.40
2019-03-12T14:10:27.070Z,8.30
2019-03-12T14:12:56.748Z,8.30
2019-03-12T14:15:35.931Z,8.30
2019-03-12T14:18:04.450Z,8.40
2019-03-12T14:20:46.300Z,8.40
2019-03-12T14:23:29.196Z,8.30
2019-03-12T14:25:57.889Z,8.20
2019-03-12T14:28:26.546Z,8.10
2019-03-12T14:30:55.020Z,8.20
2019-03-12T14:33:23.622Z,8.20
2019-03-12T14:35:52.553Z,8.20
2019-03-12T14:38:21.202Z,8.30
2019-03-12T14:40:49.752Z,8.10
2019-03-12T14:43:18.279Z,8.10
2019-03-12T14:45:52.982Z,8.00
2019-03-12T14:48:41.880Z,8.00
2019-03-12T14:51:25.624Z,8.00
2019-03-12T14:54:02.415Z,8.20
2019-03-12T14:56:31.676Z,8.00
2019-03-12T14:59:00.203Z,8.00
2019-03-12T15:01:28.766Z,8.00
2019-03-12T15:03:57.342Z,7.90
2019-03-12T15:06:25.916Z,7.90
2019-03-12T15:08:54.405Z,7.90
2019-03-12T15:11:22.857Z,7.90
2019-03-12T15:13:51.271Z,7.90
2019-03-12T15:16:19.702Z,7.90
2019-03-12T15:18:48.198Z,8.00
2019-03-12T15:21:16.659Z,8.00
2019-03-12T15:23:45.150Z,8.00
2019-03-12T15:26:13.756Z,7.90
2019-03-12T15:28:42.166Z,7.80
2019-03-12T15:31:10.681Z,7.80
2019-03-12T15:33:39.173Z,7.70
2019-03-12T15:36:07.598Z,7.70
2019-03-12T15:38:36.014Z,7.70
2019-03-12T15:41:04.447Z,7.60
2019-03-12T15:43:32.872Z,7.70
2019-03-12T15:46:01.346Z,7.70
2019-03-12T15:48:29.831Z,7.80
2019-03-12T15:50:58.351Z,7.90
2019-03-12T15:53:26.779Z,7.70
2019-03-12T15:55:55.961Z,7.70
2019-03-12T15:58:24.564Z,7.70
2019-03-12T16:00:52.998Z,7.70
2019-03-12T16:03:21.421Z,7.70
2019-03-12T16:05:49.856Z,7.70
2019-03-12T16:08:18.275Z,7.70
2019-03-12T16:10:57.344Z,7.70
2019-03-12T16:13:16.948Z,7.60
2019-03-12T16:15:45.362Z,7.60
2019-03-12T16:18:14.702Z,7.60
2019-03-12T16:20:43.296Z,7.50
2019-03-12T16:23:11.810Z,7.40
2019-03-12T16:25:40.228Z,7.40
2019-03-12T16:28:08.807Z,7.30
2019-03-12T16:30:37.293Z,7.40
2019-03-12T16:33:05.794Z,7.30
2019-03-12T16:35:34.386Z,7.30
2019-03-12T16:38:02.840Z,7.20
2019-03-12T16:40:31.262Z,7.20
2019-03-12T16:42:59.791Z,7.10
2019-03-12T16:45:28.204Z,7.00
2019-03-12T16:47:56.645Z,7.00
2019-03-12T16:50:25.073Z,6.90
2019-03-12T16:52:53.507Z,6.80
2019-03-12T16:55:21.956Z,6.80
2019-03-12T16:57:50.387Z,6.70
2019-03-12T17:00:20.860Z,6.60
2019-03-12T17:02:49.412Z,6.50
2019-03-12T17:05:17.968Z,6.50
2019-03-12T17:07:46.459Z,6.50
2019-03-12T17:10:16.397Z,6.40
2019-03-12T17:12:44.925Z,6.40
2019-03-12T17:15:16.139Z,6.40
2019-03-12T17:17:44.564Z,6.40
2019-03-12T17:20:14.632Z,6.40
2019-03-12T17:22:43.047Z,6.30
2019-03-12T17:25:12.220Z,6.30
2019-03-12T17:27:40.659Z,6.30
2019-03-12T17:30:15.090Z,6.30
2019-03-12T17:32:43.585Z,6.30
2019-03-12T17:35:15.128Z,6.20
2019-03-12T17:37:43.682Z,6.20
2019-03-12T17:40:17.660Z,6.10
2019-03-12T17:42:46.142Z,6.00
2019-03-12T17:45:15.058Z,5.90
2019-03-12T17:47:45.007Z,5.70
2019-03-12T17:50:14.213Z,5.70
2019-03-12T17:52:42.725Z,5.60
2019-03-12T17:55:15.433Z,5.70
2019-03-12T17:57:44.011Z,5.70
2019-03-12T18:00:30.742Z,5.50
2019-03-12T18:02:59.175Z,5.50
2019-03-12T18:05:27.628Z,5.60
2019-03-12T18:07:56.046Z,5.70
2019-03-12T18:10:26.029Z,5.70
2019-03-12T18:12:54.522Z,5.50
2019-03-12T18:15:23.093Z,5.40
2019-03-12T18:17:51.547Z,5.30
2019-03-12T18:20:23.663Z,5.10
2019-03-12T18:22:52.255Z,4.90
2019-03-12T18:25:26.402Z,4.80
2019-03-12T18:27:54.914Z,4.90
2019-03-12T18:30:23.358Z,4.90
2019-03-12T18:32:51.892Z,4.80
2019-03-12T18:35:20.558Z,4.90
2019-03-12T18:37:49.133Z,4.90
2019-03-12T18:40:19.958Z,4.70
2019-03-12T18:42:48.447Z,4.90
2019-03-12T18:45:22.895Z,4.80
2019-03-12T18:47:51.440Z,4.60
2019-03-12T18:50:20.199Z,4.50
2019-03-12T18:52:48.847Z,4.30
2019-03-12T18:55:38.180Z,4.30
2019-03-12T18:58:07.164Z,4.20
2019-03-12T19:00:36.483Z,4.10
2019-03-12T19:03:04.987Z,4.00
2019-03-12T19:05:33.402Z,4.10
2019-03-12T19:08:01.915Z,4.10
2019-03-12T19:10:30.416Z,4.10
2019-03-12T19:12:58.871Z,4.00
2019-03-12T19:15:27.517Z,3.90
2019-03-12T19:17:55.990Z,4.00
2019-03-12T19:20:24.470Z,3.90
2019-03-12T19:22:52.960Z,3.90
2019-03-12T19:25:45.162Z,4.00
2019-03-12T19:28:13.645Z,3.80
2019-03-12T19:30:42.160Z,3.80
2019-03-12T19:33:12.426Z,3.60
2019-03-12T19:35:41.007Z,3.60
2019-03-12T19:38:09.666Z,3.40
2019-03-12T19:40:52.606Z,3.30
2019-03-12T19:43:21.126Z,3.30
2019-03-12T19:45:49.713Z,3.20
2019-03-12T19:48:18.215Z,3.10
2019-03-12T19:50:46.869Z,3.00
2019-03-12T19:53:15.367Z,3.00
2019-03-12T19:55:48.215Z,2.90
2019-03-12T19:58:16.662Z,2.80
2019-03-12T20:00:45.999Z,2.70
2019-03-12T20:03:15.447Z,2.70
2019-03-12T20:05:44.058Z,2.60
2019-03-12T20:08:12.530Z,2.60
2019-03-12T20:11:00.559Z,2.60
2019-03-12T20:13:44.012Z,2.60
2019-03-12T20:16:44.060Z,2.60
2019-03-12T20:19:43.649Z,2.60
2019-03-12T20:22:36.186Z,2.60
2019-03-12T20:25:33.251Z,2.70
2019-03-12T20:28:37.760Z,2.70
2019-03-12T20:31:31.544Z,2.80
2019-03-12T20:34:28.390Z,2.90
2019-03-12T20:37:32.672Z,3.00
2019-03-12T20:40:37.228Z,3.00
2019-03-12T20:43:25.108Z,3.00
2019-03-12T20:46:17.398Z,3.10
2019-03-12T20:49:14.544Z,3.00
2019-03-12T20:52:14.043Z,3.00
2019-03-12T20:55:06.789Z,3.00
2019-03-12T20:57:52.752Z,3.10
2019-03-12T21:00:42.034Z,3.20
2019-03-12T21:03:36.770Z,3.30
2019-03-12T21:06:36.663Z,3.50
2019-03-12T21:09:34.133Z,3.50
2019-03-12T21:12:24.859Z,3.60
2019-03-12T21:15:11.207Z,3.70
2019-03-12T21:18:17.376Z,3.70
2019-03-12T21:21:03.785Z,3.80
2019-03-12T21:23:50.067Z,3.70
2019-03-12T21:26:42.252Z,3.70
2019-03-12T21:29:39.207Z,3.70
2019-03-12T21:32:07.690Z,3.60
2019-03-12T21:34:36.219Z,3.60
2019-03-12T21:37:04.720Z,3.70
2019-03-12T21:39:33.310Z,3.60
2019-03-12T21:42:01.742Z,3.60
2019-03-12T21:44:30.369Z,3.60
2019-03-12T21:47:00.468Z,3.50
2019-03-12T21:49:28.993Z,3.40
2019-03-12T21:51:57.407Z,3.40
2019-03-12T21:54:25.903Z,3.50
2019-03-12T21:56:54.424Z,3.40
2019-03-12T21:59:22.839Z,3.50
2019-03-12T22:01:51.283Z,3.60
2019-03-12T22:04:19.704Z,3.90
2019-03-12T22:06:48.139Z,3.90
2019-03-12T22:09:16.631Z,3.90
2019-03-12T22:11:45.077Z,3.90
2019-03-12T22:14:13.488Z,3.80
2019-03-12T22:16:42.186Z,3.70
2019-03-12T22:19:10.591Z,3.90
2019-03-12T22:21:52.778Z,3.70
2019-03-12T22:24:21.346Z,3.60
2019-03-12T22:26:49.867Z,3.60
2019-03-12T22:29:18.277Z,3.70
2019-03-12T22:31:46.740Z,3.80
2019-03-12T22:34:15.166Z,3.80
2019-03-12T22:36:43.600Z,3.70
2019-03-12T22:39:12.006Z,3.70
2019-03-12T22:41:40.459Z,3.60
2019-03-12T22:44:08.882Z,3.60
2019-03-12T22:46:37.332Z,3.60
2019-03-12T22:49:05.798Z,3.60
2019-03-12T22:51:34.346Z,3.70
2019-03-12T22:54:02.765Z,3.60
2019-03-12T22:56:31.179Z,3.60
2019-03-12T22:58:59.651Z,3.40
2019-03-12T23:01:28.151Z,3.30
2019-03-12T23:03:56.617Z,3.50
2019-03-12T23:06:28.367Z,3.50
2019-03-12T23:08:56.870Z,3.30
2019-03-12T23:11:25.274Z,3.10
2019-03-12T23:13:53.727Z,2.90
2019-03-12T23:16:22.278Z,2.80
2019-03-12T23:18:50.718Z,2.70
2019-03-12T23:21:19.266Z,2.60
2019-03-12T23:23:47.771Z,2.50
2019-03-12T23:26:16.188Z,2.50
2019-03-12T23:28:44.697Z,2.50
2019-03-12T23:31:13.250Z,2.50
2019-03-12T23:33:41.681Z,2.50
2019-03-12T23:36:10.951Z,2.50
2019-03-12T23:38:39.437Z,2.60
2019-03-12T23:41:07.862Z,2.60
2019-03-12T23:43:36.353Z,2.60
2019-03-12T23:46:04.858Z,2.70
2019-03-12T23:48:33.295Z,2.70
2019-03-12T23:51:01.843Z,2.70
2019-03-12T23:53:30.310Z,2.70
2019-03-12T23:55:58.856Z,2.80
2019-03-12T23:58:30.241Z,2.90
